sensor_id;sensor_type;location;lat;lon;timestamp;pressure;altitude;pressure_sealevel;temperature;humidity
19526;BME280;9907;42.676;26.348;2023-03-19T00:01:41;99376.56;;;7.91;80.85
19526;BME280;9907;42.676;26.348;2023-03-19T00:04:06;99369.97;;;7.83;81.04
19526;BME280;9907;42.676;26.348;2023-03-19T00:06:32;99367.44;;;7.82;80.97
19526;BME280;9907;42.676;26.348;2023-03-19T00:08:58;99369.97;;;7.83;80.64
19526;BME280;9907;42.676;26.348;2023-03-19T00:11:23;99351.16;;;7.87;81.52
19526;BME280;9907;42.676;26.348;2023-03-19T00:13:49;99364.16;;;8.02;80.27
19526;BME280;9907;42.676;26.348;2023-03-19T00:16:15;99360.75;;;8.00;79.99
19526;BME280;9907;42.676;26.348;2023-03-19T00:18:40;99355.72;;;7.84;80.14
19526;BME280;9907;42.676;26.348;2023-03-19T00:21:07;99348.97;;;7.92;80.00
19526;BME280;9907;42.676;26.348;2023-03-19T00:23:32;99361.28;;;8.05;78.81
19526;BME280;9907;42.676;26.348;2023-03-19T00:25:58;99341.19;;;8.01;79.07
19526;BME280;9907;42.676;26.348;2023-03-19T00:28:24;99345.47;;;8.15;78.18
19526;BME280;9907;42.676;26.348;2023-03-19T00:30:50;99350.91;;;8.13;78.55
19526;BME280;9907;42.676;26.348;2023-03-19T00:33:16;99344.63;;;8.14;79.03
19526;BME280;9907;42.676;26.348;2023-03-19T00:35:41;99346.50;;;8.01;79.12
19526;BME280;9907;42.676;26.348;2023-03-19T00:38:07;99334.53;;;8.07;79.45
19526;BME280;9907;42.676;26.348;2023-03-19T00:40:33;99335.78;;;8.14;79.31
19526;BME280;9907;42.676;26.348;2023-03-19T00:42:58;99330.63;;;8.23;79.62
19526;BME280;9907;42.676;26.348;2023-03-19T00:45:23;99341.97;;;8.14;79.83
19526;BME280;9907;42.676;26.348;2023-03-19T00:47:49;99347.28;;;8.14;80.02
19526;BME280;9907;42.676;26.348;2023-03-19T00:50:15;99340.72;;;8.07;80.56
19526;BME280;9907;42.676;26.348;2023-03-19T00:52:40;99350.75;;;8.04;80.72
19526;BME280;9907;42.676;26.348;2023-03-19T00:55:07;99358.72;;;8.04;81.57
19526;BME280;9907;42.676;26.348;2023-03-19T00:57:32;99354.13;;;8.06;80.97
19526;BME280;9907;42.676;26.348;2023-03-19T00:59:58;99363.19;;;8.03;81.46
19526;BME280;9907;42.676;26.348;2023-03-19T01:02:23;99358.09;;;8.00;81.42
19526;BME280;9907;42.676;26.348;2023-03-19T01:04:49;99356.16;;;8.02;81.39
19526;BME280;9907;42.676;26.348;2023-03-19T01:07:15;99356.16;;;8.02;81.26
19526;BME280;9907;42.676;26.348;2023-03-19T01:09:41;99348.47;;;8.10;80.23
19526;BME280;9907;42.676;26.348;2023-03-19T01:12:07;99358.31;;;8.21;79.52
19526;BME280;9907;42.676;26.348;2023-03-19T01:14:35;99352.38;;;8.17;80.37
19526;BME280;9907;42.676;26.348;2023-03-19T01:17:03;99348.84;;;8.17;79.90
19526;BME280;9907;42.676;26.348;2023-03-19T01:19:29;99343.66;;;8.15;80.49
19526;BME280;9907;42.676;26.348;2023-03-19T01:21:55;99355.16;;;8.16;80.20
19526;BME280;9907;42.676;26.348;2023-03-19T01:24:20;99352.38;;;8.17;80.28
19526;BME280;9907;42.676;26.348;2023-03-19T01:26:46;99352.13;;;8.20;80.40
19526;BME280;9907;42.676;26.348;2023-03-19T01:29:11;99351.75;;;8.14;80.13
19526;BME280;9907;42.676;26.348;2023-03-19T01:31:37;99360.47;;;8.16;80.89
19526;BME280;9907;42.676;26.348;2023-03-19T01:34:05;99363.88;;;8.18;80.87
19526;BME280;9907;42.676;26.348;2023-03-19T01:36:31;99350.31;;;8.21;80.54
19526;BME280;9907;42.676;26.348;2023-03-19T01:38:57;99350.84;;;8.26;79.37
19526;BME280;9907;42.676;26.348;2023-03-19T01:41:23;99347.47;;;8.24;79.13
19526;BME280;9907;42.676;26.348;2023-03-19T01:43:48;99352.09;;;8.33;78.47
19526;BME280;9907;42.676;26.348;2023-03-19T01:48:47;99359.78;;;8.25;79.55
19526;BME280;9907;42.676;26.348;2023-03-19T01:51:20;99359.72;;;8.14;79.83
19526;BME280;9907;42.676;26.348;2023-03-19T01:53:51;99356.59;;;8.09;79.49
19526;BME280;9907;42.676;26.348;2023-03-19T01:56:31;99364.78;;;8.06;79.89
19526;BME280;9907;42.676;26.348;2023-03-19T01:59:03;99364.78;;;8.06;80.55
19526;BME280;9907;42.676;26.348;2023-03-19T02:01:34;99358.63;;;8.05;81.02
19526;BME280;9907;42.676;26.348;2023-03-19T02:04:02;99354.97;;;8.06;81.12
19526;BME280;9907;42.676;26.348;2023-03-19T02:06:28;99358.16;;;8.11;80.47
19526;BME280;9907;42.676;26.348;2023-03-19T02:08:55;99361.44;;;8.15;80.42
19526;BME280;9907;42.676;26.348;2023-03-19T02:11:21;99360.25;;;8.19;79.72
19526;BME280;9907;42.676;26.348;2023-03-19T02:13:47;99353.22;;;8.18;79.94
19526;BME280;9907;42.676;26.348;2023-03-19T02:16:13;99352.59;;;8.14;78.97
19526;BME280;9907;42.676;26.348;2023-03-19T02:18:40;99356.13;;;8.15;79.51
19526;BME280;9907;42.676;26.348;2023-03-19T02:21:09;99363.72;;;8.08;78.34
19526;BME280;9907;42.676;26.348;2023-03-19T02:26:21;99364.19;;;8.13;77.87
19526;BME280;9907;42.676;26.348;2023-03-19T02:28:49;99375.94;;;8.11;78.39
19526;BME280;9907;42.676;26.348;2023-03-19T02:31:16;99371.78;;;8.07;79.18
19526;BME280;9907;42.676;26.348;2023-03-19T02:33:43;99369.03;;;8.08;79.29
19526;BME280;9907;42.676;26.348;2023-03-19T02:36:18;99370.31;;;8.03;79.56
19526;BME280;9907;42.676;26.348;2023-03-19T02:38:45;99370.44;;;8.01;80.51
19526;BME280;9907;42.676;26.348;2023-03-19T02:41:12;99371.06;;;8.05;79.93
19526;BME280;9907;42.676;26.348;2023-03-19T02:43:40;99367.56;;;8.04;79.93
19526;BME280;9907;42.676;26.348;2023-03-19T02:46:09;99376.16;;;8.08;80.29
19526;BME280;9907;42.676;26.348;2023-03-19T02:48:36;99375.31;;;8.07;79.39
19526;BME280;9907;42.676;26.348;2023-03-19T02:51:02;99383.75;;;8.01;80.48
19526;BME280;9907;42.676;26.348;2023-03-19T02:53:27;99381.81;;;8.03;80.31
19526;BME280;9907;42.676;26.348;2023-03-19T02:55:53;99396.91;;;8.03;80.46
19526;BME280;9907;42.676;26.348;2023-03-19T02:58:18;99403.84;;;8.05;80.08
19526;BME280;9907;42.676;26.348;2023-03-19T03:00:44;99406.69;;;8.15;79.92
19526;BME280;9907;42.676;26.348;2023-03-19T03:03:10;99409.28;;;8.04;80.96
19526;BME280;9907;42.676;26.348;2023-03-19T03:05:36;99410.16;;;7.92;81.49
19526;BME280;9907;42.676;26.348;2023-03-19T03:08:03;99414.19;;;7.97;81.44
19526;BME280;9907;42.676;26.348;2023-03-19T03:10:29;99417.50;;;8.01;82.24
19526;BME280;9907;42.676;26.348;2023-03-19T03:12:55;99408.56;;;8.02;81.87
19526;BME280;9907;42.676;26.348;2023-03-19T03:15:21;99417.72;;;7.98;81.80
19526;BME280;9907;42.676;26.348;2023-03-19T03:17:46;99414.59;;;8.04;80.79
19526;BME280;9907;42.676;26.348;2023-03-19T03:20:14;99419.38;;;7.99;79.50
19526;BME280;9907;42.676;26.348;2023-03-19T03:22:42;99405.94;;;7.89;79.57
19526;BME280;9907;42.676;26.348;2023-03-19T03:25:09;99408.69;;;7.88;79.14
19526;BME280;9907;42.676;26.348;2023-03-19T03:27:36;99425.72;;;7.85;78.36
19526;BME280;9907;42.676;26.348;2023-03-19T03:30:05;99419.56;;;7.84;78.50
19526;BME280;9907;42.676;26.348;2023-03-19T03:32:32;99422.97;;;7.87;78.32
19526;BME280;9907;42.676;26.348;2023-03-19T03:34:58;99413.28;;;7.86;78.32
19526;BME280;9907;42.676;26.348;2023-03-19T03:37:23;99417.66;;;7.87;77.82
19526;BME280;9907;42.676;26.348;2023-03-19T03:39:49;99421.25;;;7.86;77.79
19526;BME280;9907;42.676;26.348;2023-03-19T03:42:15;99419.13;;;7.91;77.92
19526;BME280;9907;42.676;26.348;2023-03-19T03:44:40;99423.47;;;7.92;77.60
19526;BME280;9907;42.676;26.348;2023-03-19T03:47:06;99423.78;;;7.87;78.62
19526;BME280;9907;42.676;26.348;2023-03-19T03:49:32;99425.94;;;7.82;78.95
19526;BME280;9907;42.676;26.348;2023-03-19T03:51:57;99428.59;;;7.82;79.11
19526;BME280;9907;42.676;26.348;2023-03-19T03:54:23;99430.63;;;7.78;79.52
19526;BME280;9907;42.676;26.348;2023-03-19T03:56:48;99430.41;;;7.81;79.07
19526;BME280;9907;42.676;26.348;2023-03-19T03:59:15;99430.56;;;7.67;79.63
19526;BME280;9907;42.676;26.348;2023-03-19T04:01:41;99435.50;;;7.84;79.36
19526;BME280;9907;42.676;26.348;2023-03-19T04:04:06;99436.84;;;7.66;80.69
19526;BME280;9907;42.676;26.348;2023-03-19T04:06:32;99439.78;;;7.74;81.05
19526;BME280;9907;42.676;26.348;2023-03-19T04:08:57;99440.66;;;7.75;82.13
19526;BME280;9907;42.676;26.348;2023-03-19T04:11:23;99436.75;;;7.55;82.84
19526;BME280;9907;42.676;26.348;2023-03-19T04:13:48;99439.84;;;7.49;83.41
19526;BME280;9907;42.676;26.348;2023-03-19T04:16:14;99429.63;;;7.56;83.29
19526;BME280;9907;42.676;26.348;2023-03-19T04:18:40;99440.03;;;7.59;83.59
19526;BME280;9907;42.676;26.348;2023-03-19T04:21:06;99440.88;;;7.59;83.59
19526;BME280;9907;42.676;26.348;2023-03-19T04:23:33;99442.38;;;7.63;82.89
19526;BME280;9907;42.676;26.348;2023-03-19T04:26:00;99448.31;;;7.67;82.96
19526;BME280;9907;42.676;26.348;2023-03-19T04:28:26;99449.19;;;7.67;82.65
19526;BME280;9907;42.676;26.348;2023-03-19T04:30:51;99449.91;;;7.69;82.34
19526;BME280;9907;42.676;26.348;2023-03-19T04:33:17;99443.63;;;7.70;81.61
19526;BME280;9907;42.676;26.348;2023-03-19T04:35:43;99443.63;;;7.70;81.51
19526;BME280;9907;42.676;26.348;2023-03-19T04:38:08;99439.41;;;7.68;82.23
19526;BME280;9907;42.676;26.348;2023-03-19T04:40:34;99445.88;;;7.64;81.99
19526;BME280;9907;42.676;26.348;2023-03-19T04:43:00;99450.13;;;7.66;81.40
19526;BME280;9907;42.676;26.348;2023-03-19T04:45:25;99455.97;;;7.59;82.37
19526;BME280;9907;42.676;26.348;2023-03-19T04:47:51;99452.16;;;7.50;83.60
19526;BME280;9907;42.676;26.348;2023-03-19T04:50:16;99455.56;;;7.52;83.58
19526;BME280;9907;42.676;26.348;2023-03-19T04:52:43;99462.38;;;7.56;83.19
19526;BME280;9907;42.676;26.348;2023-03-19T04:55:11;99465.53;;;7.61;83.89
19526;BME280;9907;42.676;26.348;2023-03-19T04:57:37;99461.94;;;7.62;83.40
19526;BME280;9907;42.676;26.348;2023-03-19T05:00:03;99459.41;;;7.61;83.33
19526;BME280;9907;42.676;26.348;2023-03-19T05:02:28;99460.56;;;7.57;83.97
19526;BME280;9907;42.676;26.348;2023-03-19T05:04:54;99464.19;;;7.43;84.75
19526;BME280;9907;42.676;26.348;2023-03-19T05:07:19;99470.47;;;7.42;84.99
19526;BME280;9907;42.676;26.348;2023-03-19T05:09:45;99472.25;;;7.54;84.51
19526;BME280;9907;42.676;26.348;2023-03-19T05:12:12;99474.09;;;7.54;84.52
19526;BME280;9907;42.676;26.348;2023-03-19T05:14:37;99477.16;;;7.60;83.88
19526;BME280;9907;42.676;26.348;2023-03-19T05:17:03;99472.78;;;7.59;84.21
19526;BME280;9907;42.676;26.348;2023-03-19T05:19:29;99481.50;;;7.61;84.14
19526;BME280;9907;42.676;26.348;2023-03-19T05:21:54;99477.78;;;7.64;83.83
19526;BME280;9907;42.676;26.348;2023-03-19T05:24:22;99487.56;;;7.63;83.46
19526;BME280;9907;42.676;26.348;2023-03-19T05:26:48;99483.63;;;7.69;83.76
19526;BME280;9907;42.676;26.348;2023-03-19T05:29:14;99485.09;;;7.73;84.04
19526;BME280;9907;42.676;26.348;2023-03-19T05:31:40;99493.38;;;7.94;84.14
19526;BME280;9907;42.676;26.348;2023-03-19T05:34:05;99490.56;;;8.08;83.58
19526;BME280;9907;42.676;26.348;2023-03-19T05:36:32;99499.50;;;8.07;83.08
19526;BME280;9907;42.676;26.348;2023-03-19T05:38:58;99496.28;;;8.14;82.45
19526;BME280;9907;42.676;26.348;2023-03-19T05:41:24;99503.41;;;8.14;81.17
19526;BME280;9907;42.676;26.348;2023-03-19T05:43:50;99501.22;;;8.08;81.87
19526;BME280;9907;42.676;26.348;2023-03-19T05:46:16;99505.06;;;8.04;82.15
19526;BME280;9907;42.676;26.348;2023-03-19T05:48:41;99488.13;;;8.05;82.11
19526;BME280;9907;42.676;26.348;2023-03-19T05:51:07;99503.56;;;8.12;82.20
19526;BME280;9907;42.676;26.348;2023-03-19T05:53:33;99501.91;;;8.22;81.14
19526;BME280;9907;42.676;26.348;2023-03-19T05:55:58;99505.44;;;8.23;81.52
19526;BME280;9907;42.676;26.348;2023-03-19T05:58:24;99503.63;;;8.23;81.24
19526;BME280;9907;42.676;26.348;2023-03-19T06:00:50;99503.09;;;8.31;80.55
19526;BME280;9907;42.676;26.348;2023-03-19T06:03:16;99508.59;;;8.28;79.93
19526;BME280;9907;42.676;26.348;2023-03-19T06:05:41;99508.28;;;8.32;80.30
19526;BME280;9907;42.676;26.348;2023-03-19T06:08:07;99497.31;;;8.37;80.55
19526;BME280;9907;42.676;26.348;2023-03-19T06:10:34;99513.06;;;8.40;80.25
19526;BME280;9907;42.676;26.348;2023-03-19T06:12:59;99501.56;;;8.40;79.79
19526;BME280;9907;42.676;26.348;2023-03-19T06:15:25;99501.13;;;8.46;79.75
19526;BME280;9907;42.676;26.348;2023-03-19T06:17:51;99511.31;;;8.52;80.03
19526;BME280;9907;42.676;26.348;2023-03-19T06:20:17;99507.56;;;8.54;78.96
19526;BME280;9907;42.676;26.348;2023-03-19T06:22:43;99515.78;;;8.51;79.08
19526;BME280;9907;42.676;26.348;2023-03-19T06:25:09;99516.19;;;8.58;79.35
19526;BME280;9907;42.676;26.348;2023-03-19T06:27:35;99516.59;;;8.64;79.21
19526;BME280;9907;42.676;26.348;2023-03-19T06:30:00;99527.31;;;8.75;79.38
19526;BME280;9907;42.676;26.348;2023-03-19T06:32:26;99516.19;;;8.82;78.90
19526;BME280;9907;42.676;26.348;2023-03-19T06:34:52;99519.22;;;8.88;78.47
19526;BME280;9907;42.676;26.348;2023-03-19T06:37:17;99516.38;;;9.02;77.63
19526;BME280;9907;42.676;26.348;2023-03-19T06:39:43;99515.31;;;9.05;77.19
19526;BME280;9907;42.676;26.348;2023-03-19T06:42:08;99514.81;;;9.11;76.49
19526;BME280;9907;42.676;26.348;2023-03-19T06:44:34;99514.34;;;9.17;75.27
19526;BME280;9907;42.676;26.348;2023-03-19T06:47:02;99521.19;;;9.32;73.86
19526;BME280;9907;42.676;26.348;2023-03-19T06:49:28;99526.78;;;9.40;73.45
19526;BME280;9907;42.676;26.348;2023-03-19T06:51:54;99526.78;;;9.51;73.37
19526;BME280;9907;42.676;26.348;2023-03-19T06:54:20;99530.06;;;9.55;72.58
19526;BME280;9907;42.676;26.348;2023-03-19T06:56:46;99531.44;;;9.71;72.52
19526;BME280;9907;42.676;26.348;2023-03-19T06:59:11;99524.25;;;9.83;71.09
19526;BME280;9907;42.676;26.348;2023-03-19T07:01:39;99513.47;;;10.07;70.89
19526;BME280;9907;42.676;26.348;2023-03-19T07:04:05;99510.19;;;10.37;70.07
19526;BME280;9907;42.676;26.348;2023-03-19T07:06:31;99509.28;;;10.90;68.13
19526;BME280;9907;42.676;26.348;2023-03-19T07:08:57;99507.59;;;11.10;66.67
19526;BME280;9907;42.676;26.348;2023-03-19T07:11:23;99509.03;;;11.35;66.17
19526;BME280;9907;42.676;26.348;2023-03-19T07:13:48;99505.13;;;11.59;65.40
19526;BME280;9907;42.676;26.348;2023-03-19T07:16:14;99499.50;;;11.83;63.79
19526;BME280;9907;42.676;26.348;2023-03-19T07:18:40;99499.97;;;11.98;62.82
19526;BME280;9907;42.676;26.348;2023-03-19T07:21:05;99501.69;;;12.08;62.13
19526;BME280;9907;42.676;26.348;2023-03-19T07:23:31;99496.69;;;12.25;61.47
19526;BME280;9907;42.676;26.348;2023-03-19T07:25:56;99499.53;;;12.33;59.68
19526;BME280;9907;42.676;26.348;2023-03-19T07:28:23;99501.66;;;11.99;58.79
19526;BME280;9907;42.676;26.348;2023-03-19T07:30:50;99494.00;;;12.25;58.31
19526;BME280;9907;42.676;26.348;2023-03-19T07:33:17;99497.72;;;12.43;57.42
19526;BME280;9907;42.676;26.348;2023-03-19T07:35:43;99485.28;;;12.42;57.21
19526;BME280;9907;42.676;26.348;2023-03-19T07:38:08;99471.66;;;12.83;56.61
19526;BME280;9907;42.676;26.348;2023-03-19T07:40:34;99469.94;;;13.01;56.00
19526;BME280;9907;42.676;26.348;2023-03-19T07:42:59;99468.81;;;13.23;54.89
19526;BME280;9907;42.676;26.348;2023-03-19T07:45:32;99467.69;;;13.35;54.77
19526;BME280;9907;42.676;26.348;2023-03-19T07:47:57;99468.06;;;13.59;54.31
19526;BME280;9907;42.676;26.348;2023-03-19T07:50:25;99469.66;;;13.43;54.15
19526;BME280;9907;42.676;26.348;2023-03-19T07:52:51;99471.38;;;13.71;54.40
19526;BME280;9907;42.676;26.348;2023-03-19T07:55:17;99456.50;;;13.86;54.02
19526;BME280;9907;42.676;26.348;2023-03-19T07:57:43;99462.97;;;13.56;53.26
19526;BME280;9907;42.676;26.348;2023-03-19T08:00:09;99462.22;;;13.74;53.17
19526;BME280;9907;42.676;26.348;2023-03-19T08:02:35;99464.47;;;13.78;53.24
19526;BME280;9907;42.676;26.348;2023-03-19T08:05:01;99465.56;;;13.76;53.08
19526;BME280;9907;42.676;26.348;2023-03-19T08:07:29;99465.81;;;13.92;52.78
19526;BME280;9907;42.676;26.348;2023-03-19T08:09:56;99462.50;;;14.07;52.77
19526;BME280;9907;42.676;26.348;2023-03-19T08:12:23;99460.91;;;14.14;52.94
19526;BME280;9907;42.676;26.348;2023-03-19T08:14:56;99461.13;;;14.21;51.88
19526;BME280;9907;42.676;26.348;2023-03-19T08:17:21;99454.56;;;14.33;52.00
19526;BME280;9907;42.676;26.348;2023-03-19T08:19:47;99448.16;;;14.44;50.89
19526;BME280;9907;42.676;26.348;2023-03-19T08:22:18;99454.75;;;14.49;50.56
19526;BME280;9907;42.676;26.348;2023-03-19T08:24:43;99454.75;;;14.49;50.64
19526;BME280;9907;42.676;26.348;2023-03-19T08:27:09;99444.00;;;14.67;50.73
19526;BME280;9907;42.676;26.348;2023-03-19T08:29:56;99445.41;;;14.89;51.21
19526;BME280;9907;42.676;26.348;2023-03-19T08:32:25;99451.59;;;15.07;51.17
19526;BME280;9907;42.676;26.348;2023-03-19T08:34:51;99453.97;;;15.10;50.23
19526;BME280;9907;42.676;26.348;2023-03-19T08:37:17;99449.41;;;14.85;50.59
19526;BME280;9907;42.676;26.348;2023-03-19T08:39:43;99443.25;;;14.92;50.50
19526;BME280;9907;42.676;26.348;2023-03-19T08:42:08;99446.59;;;14.94;50.71
19526;BME280;9907;42.676;26.348;2023-03-19T08:44:34;99437.09;;;15.00;50.95
19526;BME280;9907;42.676;26.348;2023-03-19T08:47:09;99434.56;;;15.24;50.53
19526;BME280;9907;42.676;26.348;2023-03-19T08:49:35;99432.97;;;15.14;50.74
19526;BME280;9907;42.676;26.348;2023-03-19T08:52:09;99428.56;;;15.30;50.68
19526;BME280;9907;42.676;26.348;2023-03-19T08:54:35;99438.44;;;15.04;51.08
19526;BME280;9907;42.676;26.348;2023-03-19T08:57:04;99435.16;;;15.10;51.88
19526;BME280;9907;42.676;26.348;2023-03-19T08:59:30;99433.84;;;15.14;51.53
19526;BME280;9907;42.676;26.348;2023-03-19T09:01:56;99433.16;;;14.94;51.96
19526;BME280;9907;42.676;26.348;2023-03-19T09:04:21;99430.63;;;15.10;50.86
19526;BME280;9907;42.676;26.348;2023-03-19T09:06:47;99429.88;;;15.26;50.49
19526;BME280;9907;42.676;26.348;2023-03-19T09:09:20;99425.88;;;15.56;50.47
19526;BME280;9907;42.676;26.348;2023-03-19T09:11:46;99410.09;;;15.35;50.01
19526;BME280;9907;42.676;26.348;2023-03-19T09:14:13;99411.28;;;15.58;49.96
19526;BME280;9907;42.676;26.348;2023-03-19T09:16:41;99406.38;;;15.54;49.70
19526;BME280;9907;42.676;26.348;2023-03-19T09:19:06;99405.94;;;15.67;50.32
19526;BME280;9907;42.676;26.348;2023-03-19T09:21:32;99402.69;;;15.63;49.96
19526;BME280;9907;42.676;26.348;2023-03-19T09:23:57;99405.75;;;15.68;51.02
19526;BME280;9907;42.676;26.348;2023-03-19T09:26:23;99394.03;;;15.77;50.30
19526;BME280;9907;42.676;26.348;2023-03-19T09:28:48;99401.78;;;15.80;50.19
19526;BME280;9907;42.676;26.348;2023-03-19T09:31:17;99395.22;;;15.83;50.47
19526;BME280;9907;42.676;26.348;2023-03-19T09:33:42;99404.00;;;15.93;50.97
19526;BME280;9907;42.676;26.348;2023-03-19T09:36:08;99391.75;;;15.98;48.94
19526;BME280;9907;42.676;26.348;2023-03-19T09:38:33;99388.19;;;15.56;48.96
19526;BME280;9907;42.676;26.348;2023-03-19T09:41:09;99390.97;;;15.72;49.05
19526;BME280;9907;42.676;26.348;2023-03-19T09:46:49;99383.88;;;16.13;48.85
19526;BME280;9907;42.676;26.348;2023-03-19T09:49:25;99380.19;;;16.22;48.12
19526;BME280;9907;42.676;26.348;2023-03-19T09:51:56;99383.94;;;16.29;49.67
19526;BME280;9907;42.676;26.348;2023-03-19T09:54:43;99384.84;;;16.04;48.73
19526;BME280;9907;42.676;26.348;2023-03-19T09:57:10;99381.31;;;15.95;48.92
19526;BME280;9907;42.676;26.348;2023-03-19T09:59:37;99380.09;;;15.90;49.16
19526;BME280;9907;42.676;26.348;2023-03-19T10:02:41;99377.75;;;15.95;48.83
19526;BME280;9907;42.676;26.348;2023-03-19T10:15:31;99357.53;;;15.91;49.92
19526;BME280;9907;42.676;26.348;2023-03-19T10:18:33;99365.03;;;15.71;49.88
19526;BME280;9907;42.676;26.348;2023-03-19T10:23:41;99348.31;;;15.59;50.80
19526;BME280;9907;42.676;26.348;2023-03-19T10:26:12;99353.72;;;15.59;50.61
19526;BME280;9907;42.676;26.348;2023-03-19T10:28:41;99353.03;;;15.57;50.75
19526;BME280;9907;42.676;26.348;2023-03-19T10:31:36;99348.66;;;15.56;50.57
19526;BME280;9907;42.676;26.348;2023-03-19T10:36:42;99340.75;;;15.29;50.83
19526;BME280;9907;42.676;26.348;2023-03-19T10:39:07;99333.03;;;15.34;51.87
19526;BME280;9907;42.676;26.348;2023-03-19T10:44:16;99334.84;;;15.51;50.69
19526;BME280;9907;42.676;26.348;2023-03-19T10:46:46;99328.63;;;15.25;50.68
19526;BME280;9907;42.676;26.348;2023-03-19T10:49:12;99321.97;;;15.11;50.86
19526;BME280;9907;42.676;26.348;2023-03-19T10:51:39;99321.25;;;15.01;51.54
19526;BME280;9907;42.676;26.348;2023-03-19T10:54:22;99315.34;;;14.98;52.08
19526;BME280;9907;42.676;26.348;2023-03-19T10:56:49;99309.97;;;14.98;52.13
19526;BME280;9907;42.676;26.348;2023-03-19T10:59:30;99320.13;;;15.12;52.24
19526;BME280;9907;42.676;26.348;2023-03-19T11:01:59;99312.34;;;15.35;51.67
19526;BME280;9907;42.676;26.348;2023-03-19T11:04:26;99316.59;;;14.86;52.08
19526;BME280;9907;42.676;26.348;2023-03-19T11:07:04;99314.47;;;14.72;52.55
19526;BME280;9907;42.676;26.348;2023-03-19T11:09:35;99305.09;;;14.76;52.60
19526;BME280;9907;42.676;26.348;2023-03-19T11:14:52;99296.66;;;15.22;51.69
19526;BME280;9907;42.676;26.348;2023-03-19T11:17:44;99303.38;;;15.26;52.35
19526;BME280;9907;42.676;26.348;2023-03-19T11:22:52;99291.69;;;15.09;52.54
19526;BME280;9907;42.676;26.348;2023-03-19T11:27:57;99278.09;;;15.11;52.30
19526;BME280;9907;42.676;26.348;2023-03-19T11:30:23;99269.03;;;15.20;52.12
19526;BME280;9907;42.676;26.348;2023-03-19T11:33:14;99258.19;;;15.38;52.49
19526;BME280;9907;42.676;26.348;2023-03-19T11:44:34;99261.16;;;15.19;52.42
19526;BME280;9907;42.676;26.348;2023-03-19T11:52:58;99262.78;;;15.11;52.95
19526;BME280;9907;42.676;26.348;2023-03-19T11:55:39;99260.25;;;15.10;52.49
19526;BME280;9907;42.676;26.348;2023-03-19T11:58:35;99269.50;;;15.07;53.00
19526;BME280;9907;42.676;26.348;2023-03-19T12:01:18;99261.59;;;15.06;52.18
19526;BME280;9907;42.676;26.348;2023-03-19T12:12:45;99252.88;;;15.12;53.05
19526;BME280;9907;42.676;26.348;2023-03-19T12:15:26;99249.69;;;15.17;52.87
19526;BME280;9907;42.676;26.348;2023-03-19T12:23:05;99247.09;;;14.99;52.57
19526;BME280;9907;42.676;26.348;2023-03-19T12:25:44;99243.75;;;15.05;53.07
19526;BME280;9907;42.676;26.348;2023-03-19T12:28:20;99243.78;;;15.13;52.94
19526;BME280;9907;42.676;26.348;2023-03-19T12:36:59;99231.94;;;14.98;53.45
19526;BME280;9907;42.676;26.348;2023-03-19T12:39:37;99234.31;;;15.01;53.53
19526;BME280;9907;42.676;26.348;2023-03-19T12:42:07;99232.78;;;14.98;53.16
19526;BME280;9907;42.676;26.348;2023-03-19T12:44:49;99231.28;;;15.04;53.97
19526;BME280;9907;42.676;26.348;2023-03-19T12:47:27;99227.97;;;15.10;54.24
19526;BME280;9907;42.676;26.348;2023-03-19T12:50:00;99229.97;;;15.08;54.67
19526;BME280;9907;42.676;26.348;2023-03-19T12:52:34;99223.44;;;15.10;54.85
19526;BME280;9907;42.676;26.348;2023-03-19T12:55:05;99221.91;;;15.08;54.42
19526;BME280;9907;42.676;26.348;2023-03-19T12:57:51;99218.88;;;15.03;54.02
19526;BME280;9907;42.676;26.348;2023-03-19T13:01:29;99225.91;;;15.04;54.32
19526;BME280;9907;42.676;26.348;2023-03-19T13:06:09;99217.53;;;15.07;54.99
19526;BME280;9907;42.676;26.348;2023-03-19T13:08:47;99220.38;;;15.05;54.72
19526;BME280;9907;42.676;26.348;2023-03-19T13:11:18;99217.78;;;14.88;55.03
19526;BME280;9907;42.676;26.348;2023-03-19T13:13:55;99216.94;;;14.87;55.24
19526;BME280;9907;42.676;26.348;2023-03-19T13:19:22;99228.34;;;14.81;55.15
19526;BME280;9907;42.676;26.348;2023-03-19T13:21:53;99227.50;;;14.81;55.22
19526;BME280;9907;42.676;26.348;2023-03-19T13:24:32;99221.31;;;14.88;54.92
19526;BME280;9907;42.676;26.348;2023-03-19T13:27:01;99223.16;;;14.88;54.95
19526;BME280;9907;42.676;26.348;2023-03-19T13:29:34;99228.53;;;14.88;55.22
19526;BME280;9907;42.676;26.348;2023-03-19T13:32:19;99228.13;;;14.75;55.54
19526;BME280;9907;42.676;26.348;2023-03-19T13:34:46;99226.22;;;14.67;55.59
19526;BME280;9907;42.676;26.348;2023-03-19T13:37:17;99225.66;;;14.55;55.90
19526;BME280;9907;42.676;26.348;2023-03-19T13:39:47;99221.69;;;14.42;56.39
19526;BME280;9907;42.676;26.348;2023-03-19T13:42:36;99226.53;;;14.38;57.09
19526;BME280;9907;42.676;26.348;2023-03-19T13:45:25;99228.22;;;14.39;56.79
19526;BME280;9907;42.676;26.348;2023-03-19T13:47:51;99223.38;;;14.43;57.23
19526;BME280;9907;42.676;26.348;2023-03-19T13:50:25;99221.69;;;14.42;56.54
19526;BME280;9907;42.676;26.348;2023-03-19T13:53:19;99219.66;;;14.36;57.31
19526;BME280;9907;42.676;26.348;2023-03-19T13:55:52;99228.63;;;14.44;56.94
19526;BME280;9907;42.676;26.348;2023-03-19T13:58:26;99208.16;;;14.34;56.76
19526;BME280;9907;42.676;26.348;2023-03-19T14:01:34;99206.63;;;14.31;57.21
19526;BME280;9907;42.676;26.348;2023-03-19T14:06:43;99206.34;;;14.34;57.02
19526;BME280;9907;42.676;26.348;2023-03-19T14:09:38;99210.16;;;14.32;57.31
19526;BME280;9907;42.676;26.348;2023-03-19T14:12:37;99213.09;;;14.21;57.24
19526;BME280;9907;42.676;26.348;2023-03-19T14:17:34;99210.22;;;14.14;57.26
19526;BME280;9907;42.676;26.348;2023-03-19T14:20:20;99208.91;;;14.18;57.50
19526;BME280;9907;42.676;26.348;2023-03-19T14:26:14;99208.59;;;14.21;57.53
19526;BME280;9907;42.676;26.348;2023-03-19T14:29:00;99210.56;;;14.19;57.56
19526;BME280;9907;42.676;26.348;2023-03-19T14:34:39;99210.88;;;14.16;57.72
19526;BME280;9907;42.676;26.348;2023-03-19T14:40:07;99204.44;;;14.09;57.72
19526;BME280;9907;42.676;26.348;2023-03-19T14:48:45;99215.22;;;13.91;58.43
19526;BME280;9907;42.676;26.348;2023-03-19T14:53:53;99208.38;;;13.97;58.58